Time;durP1;ratioP1;P1;durP2;ratioP2;P2;SDS_P1;SDS_P2;PMS_P1;PMS_P2;Temp;Humidity;BMP_temperature;BMP_pressure;BME280_temperature;BME280_humidity;BME280_pressure;Samples;Min_cycle;Max_cycle;Signal;HPM_P1;HPM_P2
2021/09/13 00:00:00;;;;;;;15.15;11.52;;;;;;;15.91;93.37;101643.88;4913453;29;20060;-52
2021/09/13 00:02:28;;;;;;;17.05;11.63;;;;;;;15.94;92.63;101636.06;4917820;29;20637;-50
2021/09/13 00:04:54;;;;;;;15.70;11.23;;;;;;;15.97;91.75;101637.41;4920822;29;20049;-54
2021/09/13 00:07:20;;;;;;;18.83;11.75;;;;;;;15.93;91.92;101642.53;4905038;29;20529;-53
2021/09/13 00:09:45;;;;;;;16.05;11.10;;;;;;;15.93;91.68;101639.84;4921069;29;20027;-49
2021/09/13 00:12:10;;;;;;;15.25;11.23;;;;;;;15.93;91.03;101639.84;4917455;29;20028;-52
2021/09/13 00:14:36;;;;;;;17.92;11.90;;;;;;;15.90;90.52;101634.97;4919074;29;20036;-52
2021/09/13 00:17:02;;;;;;;18.23;12.40;;;;;;;15.79;90.09;101638.66;4917326;29;20038;-51
2021/09/13 00:19:27;;;;;;;18.88;11.90;;;;;;;15.75;89.34;101636.75;4920677;29;20036;-53
2021/09/13 00:21:53;;;;;;;16.60;11.70;;;;;;;15.65;89.08;101638.31;4918240;29;20517;-50
2021/09/13 00:24:18;;;;;;;15.15;10.85;;;;;;;15.59;88.88;101643.94;4919887;29;20539;-50
2021/09/13 00:26:44;;;;;;;18.92;10.98;;;;;;;15.47;89.00;101644.09;4918030;29;20071;-50
2021/09/13 00:29:09;;;;;;;17.30;11.63;;;;;;;15.43;88.88;101654.59;4915522;29;20114;-52
2021/09/13 00:31:35;;;;;;;15.43;10.80;;;;;;;15.36;88.81;101645.91;4905074;29;20314;-52
2021/09/13 00:34:01;;;;;;;17.17;10.95;;;;;;;15.31;88.71;101645.88;4918954;29;20059;-51
2021/09/13 00:36:26;;;;;;;15.13;10.77;;;;;;;15.25;88.53;101644.19;4916763;29;20557;-51
2021/09/13 00:38:54;;;;;;;15.25;10.55;;;;;;;15.20;88.61;101641.44;4918820;29;20378;-53
2021/09/13 00:41:19;;;;;;;16.48;10.80;;;;;;;15.10;88.95;101647.59;4918769;29;20074;-50
2021/09/13 00:43:45;;;;;;;14.70;11.25;;;;;;;15.13;88.53;101643.56;4919882;29;20370;-51
2021/09/13 00:46:11;;;;;;;15.07;10.13;;;;;;;15.10;88.75;101641.38;4904337;29;20371;-53
2021/09/13 00:48:36;;;;;;;14.05;10.55;;;;;;;15.08;88.55;101644.34;4916452;29;20554;-53
2021/09/13 00:51:02;;;;;;;14.60;11.23;;;;;;;15.04;89.30;101642.38;4902094;29;20127;-52
2021/09/13 00:53:27;;;;;;;12.98;9.82;;;;;;;15.01;89.07;101651.00;4918574;29;20023;-54
2021/09/13 00:55:54;;;;;;;15.48;10.57;;;;;;;14.99;89.06;101645.03;4917260;29;20386;-52
2021/09/13 00:58:25;;;;;;;15.23;10.30;;;;;;;14.97;88.98;101647.19;4909832;29;20038;-52
2021/09/13 01:00:51;;;;;;;14.77;9.88;;;;;;;14.88;89.09;101651.41;4921582;29;20524;-53
2021/09/13 01:03:16;;;;;;;14.05;10.65;;;;;;;14.86;88.92;101640.84;4915787;29;20110;-53
2021/09/13 01:05:42;;;;;;;13.85;9.48;;;;;;;14.78;88.86;101650.25;4920175;29;20502;-54
2021/09/13 01:08:07;;;;;;;15.50;10.52;;;;;;;14.74;88.70;101643.72;4914032;29;20542;-55
2021/09/13 01:10:33;;;;;;;16.48;10.68;;;;;;;14.68;88.51;101650.13;4920161;29;20098;-53
2021/09/13 01:12:58;;;;;;;14.35;10.43;;;;;;;14.59;88.57;101642.75;4914278;29;20055;-53
2021/09/13 01:15:24;;;;;;;20.88;11.15;;;;;;;14.55;88.68;101639.75;4917190;29;20032;-53
2021/09/13 01:17:49;;;;;;;15.77;11.52;;;;;;;14.56;89.19;101643.25;4918726;29;20031;-56
2021/09/13 01:20:15;;;;;;;16.42;11.90;;;;;;;14.48;89.33;101637.22;4915721;29;20649;-54
2021/09/13 01:22:44;;;;;;;20.45;12.70;;;;;;;14.43;90.04;101639.03;4919247;29;20099;-52
2021/09/13 01:25:10;;;;;;;17.08;11.90;;;;;;;14.44;89.89;101637.97;4917453;29;20058;-52
2021/09/13 01:27:36;;;;;;;16.42;11.85;;;;;;;14.40;89.90;101634.13;4918156;29;20487;-55
2021/09/13 01:30:04;;;;;;;18.65;12.35;;;;;;;14.35;90.50;101634.88;4914315;29;20663;-54
2021/09/13 01:32:31;;;;;;;19.17;12.05;;;;;;;14.27;90.66;101637.22;4921188;29;20490;-53
2021/09/13 01:34:57;;;;;;;19.45;10.95;;;;;;;14.20;90.53;101646.31;4915261;29;20024;-52
2021/09/13 01:37:22;;;;;;;18.80;11.13;;;;;;;14.19;90.45;101647.38;4915531;29;20418;-52
2021/09/13 01:39:47;;;;;;;16.00;10.88;;;;;;;14.20;90.61;101642.78;4921412;29;20027;-53
2021/09/13 01:42:13;;;;;;;18.15;12.07;;;;;;;14.10;90.85;101648.84;4919593;29;20132;-51
2021/09/13 01:44:38;;;;;;;17.02;11.48;;;;;;;14.13;90.62;101645.66;4919274;29;20107;-54
2021/09/13 01:47:04;;;;;;;18.83;12.23;;;;;;;14.09;90.63;101644.53;4918494;29;20027;-55
2021/09/13 01:49:30;;;;;;;18.92;12.15;;;;;;;14.00;90.94;101650.59;4919871;29;20030;-52
2021/09/13 01:51:55;;;;;;;18.58;12.30;;;;;;;13.89;92.07;101653.16;4914882;29;20031;-56
2021/09/13 01:54:21;;;;;;;20.10;11.57;;;;;;;13.82;92.80;101652.53;4915756;29;20562;-51
2021/09/13 01:56:46;;;;;;;18.67;12.95;;;;;;;13.71;94.87;101655.31;4907819;29;20481;-55
2021/09/13 01:59:11;;;;;;;20.35;13.13;;;;;;;13.85;93.29;101656.59;4917452;29;20530;-52
2021/09/13 02:01:37;;;;;;;18.33;12.75;;;;;;;13.84;92.81;101666.56;4917050;29;20380;-55
2021/09/13 02:04:03;;;;;;;24.00;13.65;;;;;;;13.83;93.08;101667.63;4916953;29;20043;-54
2021/09/13 02:06:30;;;;;;;20.00;12.35;;;;;;;13.79;92.62;101671.84;4916190;29;20518;-53
2021/09/13 02:08:56;;;;;;;21.40;12.02;;;;;;;13.67;93.90;101667.63;4916447;29;20031;-54
2021/09/13 02:11:21;;;;;;;18.10;11.98;;;;;;;13.74;92.99;101673.66;4915489;29;20032;-56
2021/09/13 02:13:47;;;;;;;24.00;12.88;;;;;;;13.69;93.11;101670.91;4916663;29;20032;-52
2021/09/13 02:16:12;;;;;;;17.30;11.82;;;;;;;13.66;93.43;101674.91;4915117;29;20039;-53
2021/09/13 02:18:38;;;;;;;19.63;12.30;;;;;;;13.63;93.37;101674.56;4917779;29;20047;-55
2021/09/13 02:21:04;;;;;;;19.92;11.93;;;;;;;13.55;93.65;101667.72;4904316;29;20627;-52
2021/09/13 02:23:30;;;;;;;18.05;11.85;;;;;;;13.49;93.54;101677.59;4917593;29;20463;-53
2021/09/13 02:25:55;;;;;;;22.10;12.77;;;;;;;13.51;93.40;101682.72;4921259;29;21903;-56
2021/09/13 02:28:21;;;;;;;19.58;12.23;;;;;;;13.53;93.28;101686.81;4920697;29;20027;-51
2021/09/13 02:30:46;;;;;;;20.13;12.45;;;;;;;13.49;93.54;101682.16;4919417;29;20055;-52
2021/09/13 02:33:12;;;;;;;22.95;12.43;;;;;;;13.39;94.21;101682.81;4914556;29;20036;-54
2021/09/13 02:35:37;;;;;;;19.30;12.02;;;;;;;13.44;93.83;101685.56;4925884;29;20039;-53
2021/09/13 02:38:03;;;;;;;18.23;11.90;;;;;;;13.42;93.81;101684.19;4921445;29;20401;-53
2021/09/13 02:40:29;;;;;;;18.05;11.35;;;;;;;13.36;94.75;101682.47;4921320;29;20027;-53
2021/09/13 02:42:55;;;;;;;18.55;11.90;;;;;;;13.35;93.91;101689.75;4919479;29;20145;-56
2021/09/13 02:45:20;;;;;;;17.35;12.18;;;;;;;13.33;93.84;101683.78;4921904;29;20035;-53
2021/09/13 02:47:46;;;;;;;17.08;11.48;;;;;;;13.32;93.42;101686.72;4919405;29;20290;-53
2021/09/13 02:50:13;;;;;;;14.93;10.25;;;;;;;13.28;93.79;101697.13;4918650;29;20231;-54
2021/09/13 02:52:39;;;;;;;16.80;11.23;;;;;;;13.28;93.07;101689.06;4920808;29;20482;-52
2021/09/13 02:55:06;;;;;;;14.57;9.88;;;;;;;13.27;93.59;101692.81;4914712;29;20115;-51
2021/09/13 02:57:32;;;;;;;15.15;10.43;;;;;;;13.25;93.11;101686.84;4917165;29;20364;-55
2021/09/13 02:59:57;;;;;;;15.75;10.18;;;;;;;13.25;92.99;101690.38;4917859;29;20033;-51
2021/09/13 03:02:23;;;;;;;15.52;10.18;;;;;;;13.21;92.63;101688.41;4915122;29;20028;-52
2021/09/13 03:04:49;;;;;;;15.65;9.82;;;;;;;13.24;92.30;101690.59;4917386;29;20490;-55
2021/09/13 03:07:15;;;;;;;14.55;10.23;;;;;;;13.31;91.89;101696.66;4918356;29;20487;-53
2021/09/13 03:09:41;;;;;;;17.17;10.10;;;;;;;13.40;91.20;101697.88;4919907;29;20665;-56
2021/09/13 03:12:07;;;;;;;16.15;10.57;;;;;;;13.46;91.16;101704.16;4917365;29;20499;-54
2021/09/13 03:14:33;;;;;;;15.38;9.25;;;;;;;13.56;91.17;101707.84;4918370;29;20048;-56
2021/09/13 03:16:59;;;;;;;15.63;10.70;;;;;;;13.63;91.08;101693.41;4918206;29;20034;-52
2021/09/13 03:19:25;;;;;;;14.63;9.43;;;;;;;13.69;90.76;101692.44;4919346;29;20046;-53
2021/09/13 03:21:50;;;;;;;14.85;10.40;;;;;;;13.74;90.38;101692.50;4919353;29;20516;-52
2021/09/13 03:24:16;;;;;;;14.60;10.63;;;;;;;13.78;90.67;101696.34;4922315;29;20061;-56
2021/09/13 03:26:42;;;;;;;18.13;10.60;;;;;;;13.73;92.40;101688.19;4918456;29;20070;-52
2021/09/13 03:29:08;;;;;;;14.10;10.20;;;;;;;13.71;94.81;101691.13;4918896;29;20138;-53
2021/09/13 03:31:33;;;;;;;12.77;9.50;;;;;;;13.79;97.20;101689.88;4915835;29;20073;-56
2021/09/13 03:33:59;;;;;;;13.38;10.65;;;;;;;13.81;97.26;101698.53;4916694;29;20561;-52
2021/09/13 03:36:25;;;;;;;15.85;9.98;;;;;;;13.88;95.96;101699.19;4918871;29;20028;-53
2021/09/13 03:38:51;;;;;;;12.82;9.65;;;;;;;13.85;96.95;101697.81;4919651;29;20035;-52
2021/09/13 03:41:16;;;;;;;10.85;8.77;;;;;;;13.88;96.67;101702.72;4919618;29;20493;-53
2021/09/13 03:43:42;;;;;;;14.15;8.75;;;;;;;13.93;95.47;101698.44;4914935;29;20084;-52
2021/09/13 03:46:08;;;;;;;15.30;8.05;;;;;;;13.85;96.57;101688.91;4916168;29;20343;-52
2021/09/13 03:48:33;;;;;;;14.77;7.57;;;;;;;13.95;96.08;101694.44;4914599;29;20545;-54
2021/09/13 03:50:59;;;;;;;15.05;8.07;;;;;;;13.88;96.31;101693.81;4920624;29;20031;-53
2021/09/13 03:53:24;;;;;;;11.07;7.57;;;;;;;13.90;96.26;101691.69;4919916;29;20490;-55
2021/09/13 03:55:50;;;;;;;10.98;6.80;;;;;;;13.96;95.74;101701.47;4918529;29;20024;-53
2021/09/13 03:58:15;;;;;;;11.38;6.75;;;;;;;13.96;95.64;101695.25;4917353;29;20036;-55
2021/09/13 04:00:41;;;;;;;9.32;7.18;;;;;;;13.96;95.66;101693.38;4916720;29;20064;-52
2021/09/13 04:03:11;;;;;;;8.48;7.00;;;;;;;14.00;95.60;101691.81;4917265;29;20047;-55
2021/09/13 04:05:42;;;;;;;9.80;8.10;;;;;;;13.96;95.63;101696.06;4917843;29;20489;-52
2021/09/13 04:09:01;;;;;;;11.52;7.15;;;;;;;14.01;95.40;101693.47;4920013;29;20030;-56
2021/09/13 04:13:25;;;;;;;10.70;7.60;;;;;;;13.93;95.75;101701.97;4917970;29;20055;-55
2021/09/13 04:15:51;;;;;;;16.52;8.65;;;;;;;14.04;95.14;101698.38;4917732;29;20471;-51
2021/09/13 04:18:16;;;;;;;13.98;8.80;;;;;;;13.96;95.66;101695.25;4918821;29;20071;-55
2021/09/13 04:20:42;;;;;;;12.20;8.35;;;;;;;13.93;95.92;101691.19;4918910;29;20314;-53
2021/09/13 04:23:07;;;;;;;16.95;9.45;;;;;;;13.96;95.38;101697.94;4917463;29;20587;-54
2021/09/13 04:25:33;;;;;;;14.68;8.57;;;;;;;13.99;95.80;101694.75;4916978;29;20046;-56
2021/09/13 04:27:58;;;;;;;12.88;9.77;;;;;;;13.93;96.12;101696.56;4919343;29;20032;-51
2021/09/13 04:30:25;;;;;;;13.38;9.75;;;;;;;13.95;95.82;101697.13;4915235;29;20115;-55
2021/09/13 04:32:51;;;;;;;17.17;10.50;;;;;;;13.91;96.11;101696.00;4917074;29;20110;-54
2021/09/13 04:35:17;;;;;;;16.05;9.93;;;;;;;13.90;96.21;101699.75;4917294;29;20168;-55
2021/09/13 04:37:42;;;;;;;14.15;10.52;;;;;;;13.89;96.28;101704.34;4915290;29;20032;-52
2021/09/13 04:40:08;;;;;;;16.20;10.77;;;;;;;13.91;96.32;101698.69;4917124;29;20043;-52
2021/09/13 04:42:34;;;;;;;16.15;10.93;;;;;;;13.94;96.29;101706.28;4912449;29;20035;-56
2021/09/13 04:45:00;;;;;;;17.13;10.70;;;;;;;13.97;96.08;101703.09;4915660;29;20505;-51
2021/09/13 04:47:25;;;;;;;17.52;11.50;;;;;;;13.95;96.26;101710.59;4909464;29;20501;-55
2021/09/13 04:49:51;;;;;;;20.42;11.68;;;;;;;13.96;96.61;101708.72;4915627;29;20024;-52
2021/09/13 04:52:16;;;;;;;17.83;11.75;;;;;;;13.93;96.77;101718.13;4917323;29;20534;-56
2021/09/13 04:54:42;;;;;;;15.38;10.60;;;;;;;13.93;96.77;101712.75;4920884;29;20415;-52
2021/09/13 04:57:07;;;;;;;14.57;10.35;;;;;;;13.97;96.39;101718.44;4918043;29;20107;-54
2021/09/13 04:59:33;;;;;;;15.45;10.23;;;;;;;13.99;96.15;101716.31;4918274;29;20562;-51
2021/09/13 05:01:58;;;;;;;14.85;9.90;;;;;;;13.91;96.57;101712.16;4907466;29;20023;-53
2021/09/13 05:04:24;;;;;;;14.90;9.38;;;;;;;13.91;96.83;101709.47;4920821;29;20036;-54
2021/09/13 05:06:49;;;;;;;15.25;9.93;;;;;;;13.94;96.45;101708.16;4925655;29;20438;-51
2021/09/13 05:09:15;;;;;;;14.05;10.35;;;;;;;14.02;95.97;101716.66;4910144;29;20079;-57
2021/09/13 05:11:42;;;;;;;15.23;11.00;;;;;;;14.03;95.90;101712.09;4918619;29;20123;-51
2021/09/13 05:14:08;;;;;;;19.75;10.77;;;;;;;14.11;95.86;101719.72;4921010;29;20032;-53
2021/09/13 05:16:34;;;;;;;15.23;10.80;;;;;;;14.12;95.51;101714.09;4906693;29;20478;-52
2021/09/13 05:18:59;;;;;;;15.57;10.43;;;;;;;14.23;94.93;101722.34;4920800;29;20611;-51
2021/09/13 05:21:25;;;;;;;20.42;12.00;;;;;;;14.18;95.09;101714.97;4916389;29;20255;-52
2021/09/13 05:23:51;;;;;;;14.65;10.98;;;;;;;14.35;94.48;101712.25;4920444;29;20122;-55
2021/09/13 05:26:16;;;;;;;14.93;11.02;;;;;;;14.52;93.51;101716.53;4914447;29;20344;-55
2021/09/13 05:28:42;;;;;;;19.10;11.20;;;;;;;14.56;93.00;101724.97;4924828;29;20062;-51
2021/09/13 05:31:07;;;;;;;17.55;11.27;;;;;;;14.75;92.21;101720.88;4921668;29;20028;-52
2021/09/13 05:33:33;;;;;;;19.30;10.43;;;;;;;14.90;91.41;101716.72;4918381;29;20099;-52
2021/09/13 05:35:58;;;;;;;16.73;9.95;;;;;;;15.08;90.39;101716.34;4921803;29;20028;-53
2021/09/13 05:38:24;;;;;;;13.32;9.02;;;;;;;15.16;89.87;101715.09;4919189;29;20016;-51
2021/09/13 05:40:51;;;;;;;14.45;8.88;;;;;;;15.28;89.26;101719.28;4917701;29;20408;-52
2021/09/13 05:43:16;;;;;;;13.25;8.20;;;;;;;15.37;88.38;101706.13;4919191;29;20019;-54
2021/09/13 05:45:42;;;;;;;12.70;8.27;;;;;;;15.35;88.02;101709.09;4918046;29;20406;-56
2021/09/13 05:48:07;;;;;;;12.35;7.88;;;;;;;15.48;87.65;101717.84;4911795;29;20027;-52
2021/09/13 05:50:33;;;;;;;9.20;7.82;;;;;;;15.53;86.22;101723.28;4919285;29;20039;-55
2021/09/13 05:52:58;;;;;;;14.80;8.40;;;;;;;15.52;86.32;101724.34;4917581;29;20562;-54
2021/09/13 05:55:24;;;;;;;16.38;9.27;;;;;;;15.47;86.14;101727.00;4918903;29;20074;-53
2021/09/13 05:57:50;;;;;;;11.65;9.05;;;;;;;15.74;85.29;101727.00;4916979;29;20402;-54
2021/09/13 06:00:16;;;;;;;13.15;7.32;;;;;;;15.84;83.76;101717.09;4919880;29;20292;-54
2021/09/13 06:02:41;;;;;;;13.10;8.88;;;;;;;15.89;82.92;101722.50;4925437;29;20395;-55
2021/09/13 06:05:07;;;;;;;11.13;8.35;;;;;;;16.07;82.44;101723.97;4920439;29;20028;-53
2021/09/13 06:07:33;;;;;;;12.93;8.68;;;;;;;15.70;82.82;101727.50;4922131;28;20047;-51
2021/09/13 06:09:59;;;;;;;11.75;8.82;;;;;;;16.00;82.65;101724.22;4922018;29;20071;-53
2021/09/13 06:12:24;;;;;;;13.88;8.38;;;;;;;16.04;82.35;101726.41;4921250;29;20092;-54
2021/09/13 06:14:51;;;;;;;11.73;6.90;;;;;;;16.12;82.19;101718.59;4920928;29;20027;-52
2021/09/13 06:17:17;;;;;;;14.32;8.05;;;;;;;16.08;81.29;101725.59;4922420;29;20275;-53
2021/09/13 06:19:42;;;;;;;12.65;8.35;;;;;;;16.21;80.84;101718.94;4924322;29;20028;-52
2021/09/13 06:22:08;;;;;;;14.95;7.60;;;;;;;16.24;80.94;101724.63;4924295;29;20020;-51
2021/09/13 06:24:33;;;;;;;11.05;8.20;;;;;;;16.23;80.55;101727.59;4921613;29;20055;-52
2021/09/13 06:26:59;;;;;;;11.20;7.18;;;;;;;16.12;81.06;101724.00;4924172;29;20487;-54
2021/09/13 06:29:24;;;;;;;9.38;6.75;;;;;;;16.15;80.51;101722.66;4919654;29;20019;-53
2021/09/13 06:31:50;;;;;;;16.73;6.35;;;;;;;16.13;80.58;101725.63;4922833;29;20023;-52
2021/09/13 06:34:18;;;;;;;13.57;8.27;;;;;;;16.13;80.43;101722.94;4921327;29;20446;-52
2021/09/13 06:36:44;;;;;;;14.38;8.93;;;;;;;16.05;81.16;101723.44;4921153;29;20024;-51
2021/09/13 06:39:10;;;;;;;18.15;10.40;;;;;;;16.29;80.63;101715.72;4924873;29;20028;-52
2021/09/13 06:41:36;;;;;;;11.88;10.20;;;;;;;16.35;80.09;101719.28;4920902;29;20044;-53
2021/09/13 06:44:02;;;;;;;17.10;11.27;;;;;;;16.35;80.73;101727.41;4922389;29;20624;-51
2021/09/13 06:49:06;;;;;;;17.33;11.93;;;;;;;16.37;80.55;101723.34;4923560;29;20092;-52
2021/09/13 06:51:32;;;;;;;17.13;11.00;;;;;;;16.72;79.74;101727.31;4915355;29;20032;-51
2021/09/13 06:53:57;;;;;;;18.13;12.63;;;;;;;17.03;78.29;101723.59;4923791;29;20823;-52
2021/09/13 06:56:23;;;;;;;15.38;12.93;;;;;;;16.90;78.58;101729.53;4920238;29;20115;-52
2021/09/13 06:58:49;;;;;;;13.65;11.32;;;;;;;16.89;78.71;101723.31;4923536;29;20023;-53
2021/09/13 07:01:15;;;;;;;14.52;9.88;;;;;;;17.38;77.00;101722.84;4920866;29;20463;-53
2021/09/13 07:03:41;;;;;;;16.60;11.63;;;;;;;17.37;76.89;101739.38;4921586;29;20047;-53
2021/09/13 07:06:07;;;;;;;16.70;11.73;;;;;;;17.48;76.60;101738.31;4913861;29;20027;-52
2021/09/13 07:08:32;;;;;;;15.35;10.55;;;;;;;16.97;77.39;101740.94;4919251;29;20035;-51
2021/09/13 07:10:59;;;;;;;17.52;12.25;;;;;;;16.99;78.77;101754.19;4917234;29;20435;-52
2021/09/13 07:13:25;;;;;;;16.70;11.35;;;;;;;16.98;78.67;101750.66;4917896;29;20028;-52
2021/09/13 07:15:51;;;;;;;14.70;9.45;;;;;;;17.10;78.25;101751.25;4921759;29;20486;-52
2021/09/13 07:18:16;;;;;;;13.07;7.65;;;;;;;17.41;77.43;101751.28;4918002;29;20024;-53
2021/09/13 07:20:42;;;;;;;17.38;9.80;;;;;;;17.21;78.02;101758.31;4922391;29;20105;-53
2021/09/13 07:23:08;;;;;;;18.27;13.50;;;;;;;17.22;77.80;101757.22;4922369;29;20056;-52
2021/09/13 07:25:34;;;;;;;16.75;12.77;;;;;;;17.50;77.01;101757.81;4919511;29;20040;-52
2021/09/13 07:27:59;;;;;;;17.75;14.88;;;;;;;17.22;77.92;101764.53;4919437;29;20040;-52
2021/09/13 07:30:26;;;;;;;14.30;10.30;;;;;;;17.07;78.50;101757.22;4917962;29;20050;-52
2021/09/13 07:32:52;;;;;;;13.93;9.15;;;;;;;17.36;77.50;101764.84;4917035;29;20035;-52
2021/09/13 07:35:18;;;;;;;10.88;8.40;;;;;;;17.64;76.57;101761.63;4915161;29;20368;-52
2021/09/13 07:37:43;;;;;;;14.18;10.50;;;;;;;17.89;74.79;101763.53;4919570;29;20038;-53
2021/09/13 07:40:10;;;;;;;17.75;12.75;;;;;;;17.56;76.30;101764.03;4920561;29;20253;-52
2021/09/13 07:42:37;;;;;;;16.65;13.52;;;;;;;17.99;75.38;101768.16;4918459;29;20055;-52
2021/09/13 07:45:04;;;;;;;13.80;11.95;;;;;;;17.98;74.92;101771.97;4919100;29;20501;-52
2021/09/13 07:47:32;;;;;;;26.48;20.23;;;;;;;18.02;74.74;101767.59;4918144;29;20066;-52
2021/09/13 07:49:59;;;;;;;20.55;16.60;;;;;;;17.92;75.02;101768.41;4917379;29;20031;-52
2021/09/13 07:52:25;;;;;;;20.77;14.13;;;;;;;17.57;75.85;101771.91;4918184;29;20031;-52
2021/09/13 07:54:51;;;;;;;19.45;13.75;;;;;;;18.03;73.42;101771.94;4919859;29;20055;-52
2021/09/13 07:57:16;;;;;;;14.88;12.00;;;;;;;18.14;73.54;101773.56;4916723;29;20023;-52
2021/09/13 07:59:42;;;;;;;11.82;9.45;;;;;;;17.91;73.95;101780.34;4918359;29;20726;-54
2021/09/13 08:02:09;;;;;;;9.07;7.32;;;;;;;18.60;72.73;101778.88;4919710;29;20102;-54
2021/09/13 08:04:35;;;;;;;9.35;5.78;;;;;;;18.76;71.86;101787.81;4918034;29;20039;-52
2021/09/13 08:07:01;;;;;;;10.65;5.72;;;;;;;19.13;70.72;101782.72;4919287;29;20400;-54
2021/09/13 08:09:26;;;;;;;12.20;9.35;;;;;;;18.69;72.54;101783.50;4916848;29;20032;-51
2021/09/13 08:11:52;;;;;;;8.57;6.18;;;;;;;19.16;69.97;101789.50;4920513;29;20102;-50
2021/09/13 08:14:17;;;;;;;5.90;2.97;;;;;;;18.70;70.39;101790.53;4918424;29;20024;-52
2021/09/13 08:16:44;;;;;;;4.25;2.88;;;;;;;19.03;69.63;101793.66;4921226;29;20131;-51
2021/09/13 08:19:10;;;;;;;9.95;5.32;;;;;;;18.91;69.41;101798.59;4915720;29;20111;-51
2021/09/13 08:21:39;;;;;;;9.68;5.45;;;;;;;19.21;69.13;101797.63;4920875;29;20024;-50
2021/09/13 08:24:06;;;;;;;6.28;4.47;;;;;;;19.10;69.63;101799.59;4914486;29;20057;-52
2021/09/13 08:26:31;;;;;;;7.05;4.28;;;;;;;19.24;69.79;101803.31;4918926;29;20032;-53
2021/09/13 08:28:57;;;;;;;7.20;3.92;;;;;;;19.39;68.54;101804.31;4917422;29;20169;-52
2021/09/13 08:31:22;;;;;;;9.98;4.00;;;;;;;19.30;68.61;101807.63;4916275;29;20036;-50
2021/09/13 08:33:48;;;;;;;8.43;5.88;;;;;;;19.30;68.79;101820.41;4919362;29;20027;-52
2021/09/13 08:36:13;;;;;;;5.18;3.03;;;;;;;19.62;68.13;101819.97;4918926;29;20035;-52
2021/09/13 08:38:39;;;;;;;5.20;3.20;;;;;;;19.37;67.08;101820.09;4920208;29;20403;-51
2021/09/13 08:41:05;;;;;;;5.20;3.65;;;;;;;19.12;68.68;101824.56;4913801;29;20475;-51
2021/09/13 08:43:32;;;;;;;8.82;3.85;;;;;;;18.62;70.02;101820.09;4915830;29;20031;-51
2021/09/13 08:46:09;;;;;;;4.43;3.25;;;;;;;19.31;68.06;101828.28;4917463;29;20031;-51
2021/09/13 08:48:42;;;;;;;12.30;7.70;;;;;;;19.55;67.31;101839.28;4918071;29;20498;-52
2021/09/13 08:53:44;;;;;;;12.27;9.10;;;;;;;19.23;67.70;101836.22;4921054;29;20047;-51
2021/09/13 08:56:14;;;;;;;9.68;6.75;;;;;;;18.97;68.26;101832.78;4920885;29;20036;-52
2021/09/13 08:58:44;;;;;;;10.27;7.30;;;;;;;18.96;69.47;101842.84;4918583;29;20031;-52
2021/09/13 09:01:12;;;;;;;11.82;9.65;;;;;;;18.53;70.09;101843.50;4917602;29;20019;-53
2021/09/13 09:03:45;;;;;;;7.07;4.07;;;;;;;18.70;70.10;101846.72;4918541;29;20039;-53
2021/09/13 09:06:31;;;;;;;3.17;2.47;;;;;;;18.42;70.19;101848.09;4920092;29;20055;-52
2021/09/13 09:09:05;;;;;;;6.28;2.17;;;;;;;19.01;68.67;101847.44;4916426;29;20038;-52
2021/09/13 09:11:49;;;;;;;2.97;2.25;;;;;;;19.13;67.43;101857.97;4919453;29;20296;-53
2021/09/13 09:14:43;;;;;;;3.60;2.40;;;;;;;19.64;66.41;101857.75;4916591;29;20083;-52
2021/09/13 09:17:19;;;;;;;4.65;2.00;;;;;;;19.19;65.59;101862.28;4918991;29;20087;-51
2021/09/13 09:19:45;;;;;;;5.30;2.08;;;;;;;19.23;66.46;101869.63;4916492;29;20398;-51
2021/09/13 09:22:19;;;;;;;1.98;1.50;;;;;;;19.12;66.61;101869.94;4915955;29;20024;-51
2021/09/13 09:24:48;;;;;;;4.00;1.77;;;;;;;19.44;66.61;101874.97;4915355;29;20029;-50
2021/09/13 09:27:14;;;;;;;5.32;2.13;;;;;;;19.73;65.69;101866.91;4919235;29;20230;-52
2021/09/13 09:29:39;;;;;;;3.55;2.10;;;;;;;19.78;65.18;101869.63;4918476;29;20039;-53
2021/09/13 09:32:05;;;;;;;1.77;1.55;;;;;;;19.59;65.59;101873.00;4916897;29;20031;-53
2021/09/13 09:34:37;;;;;;;2.35;1.90;;;;;;;19.67;65.17;101879.75;4915530;29;20040;-51
2021/09/13 09:37:10;;;;;;;3.78;1.80;;;;;;;19.30;65.25;101885.63;4912905;29;20032;-51
2021/09/13 09:39:42;;;;;;;3.80;1.98;;;;;;;19.50;65.28;101880.06;4919988;29;20044;-52
2021/09/13 09:42:10;;;;;;;2.85;2.55;;;;;;;19.55;65.46;101877.34;4913983;29;20028;-53
2021/09/13 09:44:36;;;;;;;3.00;2.20;;;;;;;19.60;65.52;101879.25;4905026;29;20038;-52
2021/09/13 09:47:13;;;;;;;4.72;2.80;;;;;;;19.06;66.56;101877.31;4914111;29;20040;-53
2021/09/13 09:49:41;;;;;;;2.28;2.00;;;;;;;19.09;66.80;101878.66;4918485;29;20039;-55
2021/09/13 09:52:07;;;;;;;2.97;2.22;;;;;;;19.15;66.70;101889.22;4914995;29;20390;-55
2021/09/13 09:54:32;;;;;;;4.13;2.25;;;;;;;18.93;67.64;101886.84;4919696;29;20171;-54
2021/09/13 09:57:08;;;;;;;3.38;3.08;;;;;;;18.97;67.69;101898.78;4916223;29;20150;-52
2021/09/13 09:59:35;;;;;;;3.58;2.60;;;;;;;19.17;66.84;101902.50;4913108;29;20032;-54
2021/09/13 10:02:11;;;;;;;2.78;2.05;;;;;;;18.86;67.47;101893.66;4918757;29;20417;-55
2021/09/13 10:04:36;;;;;;;2.88;1.70;;;;;;;19.35;66.24;101888.31;4913681;29;20747;-54
2021/09/13 10:07:02;;;;;;;3.53;1.92;;;;;;;19.01;67.06;101894.41;4916034;29;20039;-54
2021/09/13 10:09:30;;;;;;;4.90;1.70;;;;;;;19.20;66.95;101897.31;4913837;29;20163;-53
2021/09/13 10:11:58;;;;;;;4.57;2.10;;;;;;;19.06;67.57;101899.03;4920743;29;20126;-52
2021/09/13 10:14:25;;;;;;;1.70;1.60;;;;;;;19.48;66.83;101897.75;4913571;29;20071;-54
2021/09/13 10:16:53;;;;;;;2.58;1.52;;;;;;;19.51;66.77;101899.91;4917173;29;20398;-55
2021/09/13 10:19:20;;;;;;;3.17;1.90;;;;;;;19.28;67.51;101898.66;4912817;29;20109;-55
2021/09/13 10:21:46;;;;;;;3.85;2.20;;;;;;;19.46;66.95;101895.31;4917187;29;20023;-53
2021/09/13 10:24:18;;;;;;;3.88;2.10;;;;;;;19.42;67.54;101896.16;4914685;29;20126;-52
2021/09/13 10:26:53;;;;;;;3.97;2.28;;;;;;;19.42;67.27;101899.69;4918030;29;20557;-53
2021/09/13 10:29:19;;;;;;;;;;;;;;;19.14;67.88;101894.91;4911708;29;20031;-55
2021/09/13 10:31:46;;;;;;;2.38;1.90;;;;;;;19.17;67.28;101897.06;4919564;29;19938;-54
2021/09/13 10:34:20;;;;;;;2.20;1.77;;;;;;;18.91;67.77;101897.16;4916537;29;20031;-53
2021/09/13 10:37:19;;;;;;;1.73;1.63;;;;;;;18.98;67.17;101892.25;4913530;29;20035;-52
2021/09/13 10:39:53;;;;;;;3.03;1.58;;;;;;;19.06;67.04;101890.88;4902696;29;20047;-53
2021/09/13 10:42:35;;;;;;;3.55;1.83;;;;;;;19.13;67.20;101898.72;4909077;29;20032;-52
2021/09/13 10:45:13;;;;;;;4.18;2.35;;;;;;;18.77;67.86;101896.13;4907335;29;20039;-54
2021/09/13 10:47:41;;;;;;;5.10;3.00;;;;;;;18.28;70.43;101893.97;4914519;29;20064;-53
2021/09/13 10:50:20;;;;;;;4.47;3.10;;;;;;;18.36;70.08;101893.44;4917336;29;20028;-55
2021/09/13 10:52:48;;;;;;;8.13;4.97;;;;;;;18.41;70.15;101890.72;4915833;29;20406;-55
2021/09/13 10:55:16;;;;;;;6.85;4.55;;;;;;;18.78;69.06;101895.03;4918958;29;20059;-53
2021/09/13 10:58:13;;;;;;;8.80;4.35;;;;;;;18.87;67.74;101893.38;4918525;29;20470;-55
2021/09/13 11:00:42;;;;;;;5.30;4.55;;;;;;;18.89;67.96;101890.41;4912043;29;20048;-55
2021/09/13 11:03:29;;;;;;;6.57;4.47;;;;;;;18.29;69.00;101892.88;4902971;29;20084;-52
2021/09/13 11:06:16;;;;;;;3.58;2.30;;;;;;;18.32;66.87;101896.97;4915041;29;20118;-55
2021/09/13 11:08:44;;;;;;;4.97;3.10;;;;;;;18.60;66.10;101888.25;4914444;29;20439;-55
2021/09/13 11:11:23;;;;;;;5.53;3.67;;;;;;;18.37;68.18;101896.97;4915112;29;20126;-55
2021/09/13 11:14:02;;;;;;;6.97;3.60;;;;;;;18.06;68.43;101899.66;4911957;29;20227;-55
2021/09/13 11:16:29;;;;;;;5.57;2.72;;;;;;;18.51;67.91;101910.81;4914498;29;20035;-55
2021/09/13 11:18:56;;;;;;;3.10;2.40;;;;;;;18.47;68.57;101915.13;4911815;29;20253;-54
2021/09/13 11:21:24;;;;;;;4.07;2.47;;;;;;;18.66;68.00;101910.78;4915943;29;20422;-52
2021/09/13 11:23:54;;;;;;;3.75;2.15;;;;;;;18.53;67.82;101908.63;4914460;29;20515;-54